sensor_id;sensor_type;location;lat;lon;timestamp;temperature;humidity
42841;DHT22;28491;46.898;7.660;2024-03-23T00:53:26;6.60;1.00
42841;DHT22;28491;46.898;7.660;2024-03-23T00:55:52;6.60;1.00
42841;DHT22;28491;46.898;7.660;2024-03-23T00:58:17;6.60;47.70
42841;DHT22;28491;46.898;7.660;2024-03-23T01:00:43;6.60;1.00
42841;DHT22;28491;46.898;7.660;2024-03-23T01:03:08;6.70;1.00
42841;DHT22;28491;46.898;7.660;2024-03-23T01:05:34;6.70;20.10
42841;DHT22;28491;46.898;7.660;2024-03-23T01:07:59;6.70;44.90
42841;DHT22;28491;46.898;7.660;2024-03-23T01:10:25;6.70;25.40
42841;DHT22;28491;46.898;7.660;2024-03-23T01:12:50;6.70;63.70
42841;DHT22;28491;46.898;7.660;2024-03-23T01:15:16;6.80;64.10
42841;DHT22;28491;46.898;7.660;2024-03-23T01:17:41;6.90;65.40
42841;DHT22;28491;46.898;7.660;2024-03-23T01:20:07;7.00;1.00
42841;DHT22;28491;46.898;7.660;2024-03-23T01:22:33;7.00;19.80
42841;DHT22;28491;46.898;7.660;2024-03-23T01:24:58;7.00;14.50
42841;DHT22;28491;46.898;7.660;2024-03-23T01:27:24;7.00;53.10
42841;DHT22;28491;46.898;7.660;2024-03-23T01:29:50;7.10;60.00
42841;DHT22;28491;46.898;7.660;2024-03-23T01:32:18;7.10;7.10
42841;DHT22;28491;46.898;7.660;2024-03-23T01:34:44;7.20;1.00
42841;DHT22;28491;46.898;7.660;2024-03-23T01:37:09;7.20;1.00
42841;DHT22;28491;46.898;7.660;2024-03-23T01:39:35;7.20;16.10
42841;DHT22;28491;46.898;7.660;2024-03-23T01:42:00;7.20;10.40
42841;DHT22;28491;46.898;7.660;2024-03-23T01:44:26;7.30;4.20
42841;DHT22;28491;46.898;7.660;2024-03-23T01:46:51;7.30;1.00
42841;DHT22;28491;46.898;7.660;2024-03-23T01:49:17;7.30;5.60
42841;DHT22;28491;46.898;7.660;2024-03-23T01:51:43;7.30;1.00
42841;DHT22;28491;46.898;7.660;2024-03-23T01:54:09;7.30;1.00
42841;DHT22;28491;46.898;7.660;2024-03-23T01:56:35;7.40;1.00
42841;DHT22;28491;46.898;7.660;2024-03-23T01:59:07;7.40;1.00
42841;DHT22;28491;46.898;7.660;2024-03-23T02:01:35;7.50;1.00
42841;DHT22;28491;46.898;7.660;2024-03-23T02:04:03;7.50;1.00
42841;DHT22;28491;46.898;7.660;2024-03-23T02:06:29;7.50;1.00
42841;DHT22;28491;46.898;7.660;2024-03-23T02:08:55;7.60;1.00
42841;DHT22;28491;46.898;7.660;2024-03-23T02:11:20;7.50;1.00
42841;DHT22;28491;46.898;7.660;2024-03-23T02:13:46;7.60;1.00
42841;DHT22;28491;46.898;7.660;2024-03-23T02:16:12;7.60;1.00
42841;DHT22;28491;46.898;7.660;2024-03-23T02:18:39;7.60;1.00
42841;DHT22;28491;46.898;7.660;2024-03-23T02:21:04;7.60;1.00
42841;DHT22;28491;46.898;7.660;2024-03-23T02:23:30;7.60;1.00
42841;DHT22;28491;46.898;7.660;2024-03-23T02:25:56;7.60;1.00
42841;DHT22;28491;46.898;7.660;2024-03-23T02:28:21;7.60;1.00
42841;DHT22;28491;46.898;7.660;2024-03-23T02:30:51;7.60;1.00
42841;DHT22;28491;46.898;7.660;2024-03-23T02:33:17;7.60;1.00
42841;DHT22;28491;46.898;7.660;2024-03-23T02:35:43;7.60;1.00
42841;DHT22;28491;46.898;7.660;2024-03-23T02:38:09;7.60;1.00
42841;DHT22;28491;46.898;7.660;2024-03-23T02:40:35;7.50;8.50
42841;DHT22;28491;46.898;7.660;2024-03-23T02:43:02;7.50;22.90
42841;DHT22;28491;46.898;7.660;2024-03-23T02:45:28;7.50;38.10
42841;DHT22;28491;46.898;7.660;2024-03-23T02:47:53;7.50;1.60
42841;DHT22;28491;46.898;7.660;2024-03-23T02:50:19;7.50;2.80
42841;DHT22;28491;46.898;7.660;2024-03-23T02:52:45;7.50;1.00
42841;DHT22;28491;46.898;7.660;2024-03-23T02:55:10;7.50;15.60
42841;DHT22;28491;46.898;7.660;2024-03-23T02:57:36;7.50;19.70
42841;DHT22;28491;46.898;7.660;2024-03-23T03:00:01;7.50;27.30
42841;DHT22;28491;46.898;7.660;2024-03-23T03:02:27;7.50;47.60
42841;DHT22;28491;46.898;7.660;2024-03-23T03:04:53;7.40;61.30
42841;DHT22;28491;46.898;7.660;2024-03-23T03:07:18;7.40;59.30
42841;DHT22;28491;46.898;7.660;2024-03-23T03:09:44;7.40;62.00
42841;DHT22;28491;46.898;7.660;2024-03-23T03:12:09;7.40;60.10
42841;DHT22;28491;46.898;7.660;2024-03-23T03:14:35;7.30;69.10
42841;DHT22;28491;46.898;7.660;2024-03-23T03:17:00;7.30;71.50
42841;DHT22;28491;46.898;7.660;2024-03-23T03:19:26;7.30;74.60
42841;DHT22;28491;46.898;7.660;2024-03-23T03:21:52;7.40;69.80
42841;DHT22;28491;46.898;7.660;2024-03-23T03:24:18;7.30;72.90
42841;DHT22;28491;46.898;7.660;2024-03-23T03:26:44;7.30;76.40
42841;DHT22;28491;46.898;7.660;2024-03-23T03:29:09;7.30;77.90
42841;DHT22;28491;46.898;7.660;2024-03-23T03:31:35;7.30;71.70
42841;DHT22;28491;46.898;7.660;2024-03-23T03:34:01;7.30;73.00
42841;DHT22;28491;46.898;7.660;2024-03-23T03:36:27;7.20;64.50
42841;DHT22;28491;46.898;7.660;2024-03-23T03:38:53;7.20;71.00
42841;DHT22;28491;46.898;7.660;2024-03-23T03:41:19;7.10;66.20
42841;DHT22;28491;46.898;7.660;2024-03-23T03:43:44;7.10;68.30
42841;DHT22;28491;46.898;7.660;2024-03-23T03:46:10;7.10;40.20
42841;DHT22;28491;46.898;7.660;2024-03-23T03:48:36;7.10;28.90
42841;DHT22;28491;46.898;7.660;2024-03-23T03:51:02;7.10;66.10
42841;DHT22;28491;46.898;7.660;2024-03-23T03:53:28;7.10;69.40
42841;DHT22;28491;46.898;7.660;2024-03-23T03:55:54;7.10;25.00
42841;DHT22;28491;46.898;7.660;2024-03-23T03:58:19;7.10;56.10
42841;DHT22;28491;46.898;7.660;2024-03-23T04:00:45;7.10;65.00
42841;DHT22;28491;46.898;7.660;2024-03-23T04:03:10;7.20;65.90
42841;DHT22;28491;46.898;7.660;2024-03-23T04:05:36;7.20;68.90
42841;DHT22;28491;46.898;7.660;2024-03-23T04:08:01;7.20;71.60
42841;DHT22;28491;46.898;7.660;2024-03-23T04:10:27;7.20;87.50
42841;DHT22;28491;46.898;7.660;2024-03-23T04:12:53;7.20;86.80
42841;DHT22;28491;46.898;7.660;2024-03-23T04:15:19;7.20;90.20
42841;DHT22;28491;46.898;7.660;2024-03-23T04:17:45;7.20;88.30
42841;DHT22;28491;46.898;7.660;2024-03-23T04:20:11;7.20;89.50
42841;DHT22;28491;46.898;7.660;2024-03-23T04:22:39;7.20;91.30
42841;DHT22;28491;46.898;7.660;2024-03-23T04:25:05;7.30;92.50
42841;DHT22;28491;46.898;7.660;2024-03-23T04:27:35;7.30;89.90
42841;DHT22;28491;46.898;7.660;2024-03-23T04:30:01;7.40;87.70
42841;DHT22;28491;46.898;7.660;2024-03-23T04:32:27;7.40;88.20
42841;DHT22;28491;46.898;7.660;2024-03-23T04:34:53;7.50;84.20
42841;DHT22;28491;46.898;7.660;2024-03-23T04:37:20;7.40;78.80
42841;DHT22;28491;46.898;7.660;2024-03-23T04:39:46;7.50;81.20
42841;DHT22;28491;46.898;7.660;2024-03-23T04:42:11;7.50;88.50
42841;DHT22;28491;46.898;7.660;2024-03-23T04:44:37;7.50;91.90
42841;DHT22;28491;46.898;7.660;2024-03-23T04:47:03;7.60;94.20
42841;DHT22;28491;46.898;7.660;2024-03-23T04:49:29;7.60;90.30
42841;DHT22;28491;46.898;7.660;2024-03-23T04:51:54;7.60;87.40
42841;DHT22;28491;46.898;7.660;2024-03-23T04:54:20;7.60;83.20
42841;DHT22;28491;46.898;7.660;2024-03-23T04:56:45;7.70;82.20
42841;DHT22;28491;46.898;7.660;2024-03-23T04:59:11;7.70;77.60
42841;DHT22;28491;46.898;7.660;2024-03-23T05:01:37;7.80;62.50
42841;DHT22;28491;46.898;7.660;2024-03-23T05:04:04;7.80;22.20
42841;DHT22;28491;46.898;7.660;2024-03-23T05:06:30;7.90;63.00
42841;DHT22;28491;46.898;7.660;2024-03-23T05:08:56;7.90;23.90
42841;DHT22;28491;46.898;7.660;2024-03-23T05:11:21;8.00;12.20
42841;DHT22;28491;46.898;7.660;2024-03-23T05:13:47;8.10;74.10
42841;DHT22;28491;46.898;7.660;2024-03-23T05:16:13;8.10;66.50
42841;DHT22;28491;46.898;7.660;2024-03-23T05:18:38;8.10;75.40
42841;DHT22;28491;46.898;7.660;2024-03-23T05:21:04;8.20;82.20
42841;DHT22;28491;46.898;7.660;2024-03-23T05:23:29;8.20;28.90
42841;DHT22;28491;46.898;7.660;2024-03-23T05:25:55;8.20;66.70
42841;DHT22;28491;46.898;7.660;2024-03-23T05:28:24;8.20;73.10
42841;DHT22;28491;46.898;7.660;2024-03-23T05:30:51;8.30;80.50
42841;DHT22;28491;46.898;7.660;2024-03-23T05:33:18;8.50;99.00
42841;DHT22;28491;46.898;7.660;2024-03-23T05:35:44;8.50;93.40
42841;DHT22;28491;46.898;7.660;2024-03-23T05:38:10;8.60;1.00
42841;DHT22;28491;46.898;7.660;2024-03-23T05:40:35;8.50;1.00
42841;DHT22;28491;46.898;7.660;2024-03-23T05:43:03;8.50;1.00
42841;DHT22;28491;46.898;7.660;2024-03-23T05:45:29;8.50;31.50
42841;DHT22;28491;46.898;7.660;2024-03-23T05:47:54;8.50;64.80
42841;DHT22;28491;46.898;7.660;2024-03-23T05:50:22;8.60;74.30
42841;DHT22;28491;46.898;7.660;2024-03-23T05:52:48;8.70;76.10
42841;DHT22;28491;46.898;7.660;2024-03-23T05:55:14;8.70;79.60
42841;DHT22;28491;46.898;7.660;2024-03-23T05:57:39;8.70;82.40
42841;DHT22;28491;46.898;7.660;2024-03-23T06:00:06;8.70;82.90
42841;DHT22;28491;46.898;7.660;2024-03-23T06:02:35;8.80;83.10
42841;DHT22;28491;46.898;7.660;2024-03-23T06:05:01;8.80;78.40
42841;DHT22;28491;46.898;7.660;2024-03-23T06:07:27;8.90;76.80
42841;DHT22;28491;46.898;7.660;2024-03-23T06:09:53;8.90;79.50
42841;DHT22;28491;46.898;7.660;2024-03-23T06:12:18;9.00;79.60
42841;DHT22;28491;46.898;7.660;2024-03-23T06:14:44;8.90;79.50
42841;DHT22;28491;46.898;7.660;2024-03-23T06:17:09;8.90;81.50
42841;DHT22;28491;46.898;7.660;2024-03-23T06:19:35;8.90;79.00
42841;DHT22;28491;46.898;7.660;2024-03-23T06:22:00;8.90;73.60
42841;DHT22;28491;46.898;7.660;2024-03-23T06:24:26;8.90;74.50
42841;DHT22;28491;46.898;7.660;2024-03-23T06:26:51;8.90;76.10
42841;DHT22;28491;46.898;7.660;2024-03-23T06:29:17;8.80;74.70
42841;DHT22;28491;46.898;7.660;2024-03-23T06:31:42;8.80;75.80
42841;DHT22;28491;46.898;7.660;2024-03-23T06:34:08;8.90;76.10
42841;DHT22;28491;46.898;7.660;2024-03-23T06:36:34;8.90;64.30
42841;DHT22;28491;46.898;7.660;2024-03-23T06:38:59;8.80;61.90
42841;DHT22;28491;46.898;7.660;2024-03-23T06:41:25;8.90;44.90
42841;DHT22;28491;46.898;7.660;2024-03-23T06:43:51;8.90;24.90
42841;DHT22;28491;46.898;7.660;2024-03-23T06:46:17;8.90;35.80
42841;DHT22;28491;46.898;7.660;2024-03-23T06:48:45;8.90;4.00
42841;DHT22;28491;46.898;7.660;2024-03-23T06:51:10;8.90;1.00
42841;DHT22;28491;46.898;7.660;2024-03-23T06:53:36;9.00;1.00
42841;DHT22;28491;46.898;7.660;2024-03-23T06:56:01;8.90;1.00
42841;DHT22;28491;46.898;7.660;2024-03-23T06:58:27;8.90;1.00
42841;DHT22;28491;46.898;7.660;2024-03-23T07:00:52;8.90;1.00
42841;DHT22;28491;46.898;7.660;2024-03-23T07:03:18;8.80;1.00
42841;DHT22;28491;46.898;7.660;2024-03-23T07:05:43;8.80;1.00
42841;DHT22;28491;46.898;7.660;2024-03-23T07:08:11;8.80;1.00
42841;DHT22;28491;46.898;7.660;2024-03-23T07:10:39;8.80;1.00
42841;DHT22;28491;46.898;7.660;2024-03-23T07:13:05;8.80;1.00
42841;DHT22;28491;46.898;7.660;2024-03-23T07:15:30;8.80;99.90
42841;DHT22;28491;46.898;7.660;2024-03-23T07:17:56;8.90;99.60
42841;DHT22;28491;46.898;7.660;2024-03-23T07:20:21;8.90;97.00
42841;DHT22;28491;46.898;7.660;2024-03-23T07:22:47;8.80;98.60
42841;DHT22;28491;46.898;7.660;2024-03-23T07:25:13;8.80;99.90
42841;DHT22;28491;46.898;7.660;2024-03-23T07:27:38;8.80;99.90
42841;DHT22;28491;46.898;7.660;2024-03-23T07:30:05;8.90;99.90
42841;DHT22;28491;46.898;7.660;2024-03-23T07:32:30;8.90;91.90
42841;DHT22;28491;46.898;7.660;2024-03-23T07:34:56;8.90;91.60
42841;DHT22;28491;46.898;7.660;2024-03-23T07:37:21;8.90;79.40
42841;DHT22;28491;46.898;7.660;2024-03-23T07:39:47;8.90;78.70
42841;DHT22;28491;46.898;7.660;2024-03-23T07:42:12;8.90;81.70
42841;DHT22;28491;46.898;7.660;2024-03-23T07:44:38;8.90;75.70
42841;DHT22;28491;46.898;7.660;2024-03-23T07:47:04;8.90;79.40
42841;DHT22;28491;46.898;7.660;2024-03-23T07:49:29;8.90;70.50
42841;DHT22;28491;46.898;7.660;2024-03-23T07:51:55;8.90;88.50
42841;DHT22;28491;46.898;7.660;2024-03-23T07:54:20;8.90;72.00
42841;DHT22;28491;46.898;7.660;2024-03-23T07:56:46;8.90;76.50
42841;DHT22;28491;46.898;7.660;2024-03-23T07:59:11;8.90;77.60
42841;DHT22;28491;46.898;7.660;2024-03-23T08:01:37;8.90;75.90
42841;DHT22;28491;46.898;7.660;2024-03-23T08:04:02;8.90;86.40
42841;DHT22;28491;46.898;7.660;2024-03-23T08:06:28;8.80;91.50
42841;DHT22;28491;46.898;7.660;2024-03-23T08:08:57;8.90;69.00
42841;DHT22;28491;46.898;7.660;2024-03-23T08:11:30;8.80;21.20
42841;DHT22;28491;46.898;7.660;2024-03-23T08:13:56;8.80;84.40
42841;DHT22;28491;46.898;7.660;2024-03-23T08:16:22;8.70;91.50
42841;DHT22;28491;46.898;7.660;2024-03-23T08:18:50;8.50;90.50
42841;DHT22;28491;46.898;7.660;2024-03-23T08:21:16;8.40;82.60
42841;DHT22;28491;46.898;7.660;2024-03-23T08:23:42;8.30;85.50
42841;DHT22;28491;46.898;7.660;2024-03-23T08:26:12;8.20;85.30
42841;DHT22;28491;46.898;7.660;2024-03-23T08:28:38;8.10;94.00
42841;DHT22;28491;46.898;7.660;2024-03-23T08:31:06;8.00;92.10
42841;DHT22;28491;46.898;7.660;2024-03-23T08:33:32;8.00;96.30
42841;DHT22;28491;46.898;7.660;2024-03-23T08:35:58;8.00;98.20
42841;DHT22;28491;46.898;7.660;2024-03-23T08:38:24;8.00;91.50
42841;DHT22;28491;46.898;7.660;2024-03-23T08:43:29;7.90;77.90
42841;DHT22;28491;46.898;7.660;2024-03-23T08:46:10;7.90;95.30
42841;DHT22;28491;46.898;7.660;2024-03-23T08:48:36;7.80;90.50
42841;DHT22;28491;46.898;7.660;2024-03-23T08:51:06;7.80;84.80
42841;DHT22;28491;46.898;7.660;2024-03-23T08:53:32;7.90;95.70
42841;DHT22;28491;46.898;7.660;2024-03-23T08:55:59;7.90;88.90
42841;DHT22;28491;46.898;7.660;2024-03-23T08:58:27;7.80;71.90
42841;DHT22;28491;46.898;7.660;2024-03-23T09:00:54;7.90;85.80
42841;DHT22;28491;46.898;7.660;2024-03-23T09:03:22;7.80;92.10
42841;DHT22;28491;46.898;7.660;2024-03-23T09:05:48;7.80;94.30
42841;DHT22;28491;46.898;7.660;2024-03-23T09:08:14;7.80;76.60
42841;DHT22;28491;46.898;7.660;2024-03-23T09:10:40;7.80;91.40
42841;DHT22;28491;46.898;7.660;2024-03-23T09:13:06;7.80;90.90
42841;DHT22;28491;46.898;7.660;2024-03-23T09:15:36;7.70;78.20
42841;DHT22;28491;46.898;7.660;2024-03-23T09:18:02;7.80;62.00
42841;DHT22;28491;46.898;7.660;2024-03-23T09:20:28;7.70;58.20
42841;DHT22;28491;46.898;7.660;2024-03-23T09:22:54;7.70;48.90
42841;DHT22;28491;46.898;7.660;2024-03-23T09:25:19;7.70;61.30
42841;DHT22;28491;46.898;7.660;2024-03-23T09:27:46;7.60;16.20
42841;DHT22;28491;46.898;7.660;2024-03-23T09:30:12;7.60;1.00
42841;DHT22;28491;46.898;7.660;2024-03-23T09:32:38;7.60;1.00
42841;DHT22;28491;46.898;7.660;2024-03-23T09:35:04;7.50;1.00
42841;DHT22;28491;46.898;7.660;2024-03-23T09:37:30;7.50;1.00
42841;DHT22;28491;46.898;7.660;2024-03-23T09:39:55;7.50;98.50
42841;DHT22;28491;46.898;7.660;2024-03-23T09:42:21;7.40;1.00
42841;DHT22;28491;46.898;7.660;2024-03-23T09:44:47;7.40;1.00
42841;DHT22;28491;46.898;7.660;2024-03-23T09:47:14;7.40;99.80
42841;DHT22;28491;46.898;7.660;2024-03-23T09:49:39;7.40;93.90
42841;DHT22;28491;46.898;7.660;2024-03-23T09:52:05;7.50;82.10
42841;DHT22;28491;46.898;7.660;2024-03-23T09:54:32;7.50;64.40
42841;DHT22;28491;46.898;7.660;2024-03-23T09:56:58;7.50;1.00
42841;DHT22;28491;46.898;7.660;2024-03-23T09:59:24;7.50;96.50
42841;DHT22;28491;46.898;7.660;2024-03-23T10:01:52;7.50;89.70
42841;DHT22;28491;46.898;7.660;2024-03-23T10:04:41;7.50;1.00
42841;DHT22;28491;46.898;7.660;2024-03-23T10:07:14;7.50;66.10
42841;DHT22;28491;46.898;7.660;2024-03-23T10:09:43;7.50;1.00
42841;DHT22;28491;46.898;7.660;2024-03-23T10:12:13;7.50;1.00
42841;DHT22;28491;46.898;7.660;2024-03-23T10:14:42;7.60;68.60
42841;DHT22;28491;46.898;7.660;2024-03-23T10:17:22;7.60;73.20
42841;DHT22;28491;46.898;7.660;2024-03-23T10:19:51;7.60;17.60
42841;DHT22;28491;46.898;7.660;2024-03-23T10:22:19;7.60;1.00
42841;DHT22;28491;46.898;7.660;2024-03-23T10:24:45;7.60;99.50
42841;DHT22;28491;46.898;7.660;2024-03-23T10:27:21;7.60;1.00
42841;DHT22;28491;46.898;7.660;2024-03-23T10:29:50;7.60;99.90
42841;DHT22;28491;46.898;7.660;2024-03-23T10:32:17;7.60;1.00
42841;DHT22;28491;46.898;7.660;2024-03-23T10:34:42;7.60;1.00
42841;DHT22;28491;46.898;7.660;2024-03-23T10:37:09;7.70;1.00
42841;DHT22;28491;46.898;7.660;2024-03-23T10:39:39;7.80;1.00
42841;DHT22;28491;46.898;7.660;2024-03-23T10:42:06;7.80;1.00
42841;DHT22;28491;46.898;7.660;2024-03-23T10:44:33;7.90;1.00
42841;DHT22;28491;46.898;7.660;2024-03-23T10:46:59;7.90;99.40
42841;DHT22;28491;46.898;7.660;2024-03-23T10:49:27;7.90;92.40
42841;DHT22;28491;46.898;7.660;2024-03-23T10:51:55;7.80;84.30
42841;DHT22;28491;46.898;7.660;2024-03-23T10:54:21;7.80;77.70
42841;DHT22;28491;46.898;7.660;2024-03-23T10:56:47;7.80;87.20
42841;DHT22;28491;46.898;7.660;2024-03-23T10:59:15;7.90;82.00
42841;DHT22;28491;46.898;7.660;2024-03-23T11:01:57;7.90;80.60
42841;DHT22;28491;46.898;7.660;2024-03-23T11:04:36;7.90;60.00
42841;DHT22;28491;46.898;7.660;2024-03-23T11:09:50;7.70;2.80
42841;DHT22;28491;46.898;7.660;2024-03-23T11:14:50;7.60;1.00
42841;DHT22;28491;46.898;7.660;2024-03-23T11:17:20;7.80;1.00
42841;DHT22;28491;46.898;7.660;2024-03-23T11:19:59;7.80;2.60
42841;DHT22;28491;46.898;7.660;2024-03-23T11:25:16;8.00;60.50
42841;DHT22;28491;46.898;7.660;2024-03-23T11:27:43;8.10;27.20
42841;DHT22;28491;46.898;7.660;2024-03-23T11:30:16;8.20;24.20
42841;DHT22;28491;46.898;7.660;2024-03-23T11:32:43;8.20;62.20
42841;DHT22;28491;46.898;7.660;2024-03-23T11:35:09;8.40;68.20
42841;DHT22;28491;46.898;7.660;2024-03-23T11:37:36;8.40;2.90
42841;DHT22;28491;46.898;7.660;2024-03-23T11:40:17;8.50;45.70
42841;DHT22;28491;46.898;7.660;2024-03-23T11:42:43;8.70;59.60
42841;DHT22;28491;46.898;7.660;2024-03-23T11:45:09;8.80;27.90
42841;DHT22;28491;46.898;7.660;2024-03-23T11:47:35;8.80;53.90
42841;DHT22;28491;46.898;7.660;2024-03-23T11:50:00;8.90;9.80
42841;DHT22;28491;46.898;7.660;2024-03-23T11:52:26;9.00;1.00
42841;DHT22;28491;46.898;7.660;2024-03-23T11:54:51;8.90;1.00
42841;DHT22;28491;46.898;7.660;2024-03-23T11:57:17;8.80;1.00
42841;DHT22;28491;46.898;7.660;2024-03-23T11:59:42;8.80;1.00
42841;DHT22;28491;46.898;7.660;2024-03-23T12:02:13;8.70;1.00
42841;DHT22;28491;46.898;7.660;2024-03-23T12:04:41;8.70;1.00
42841;DHT22;28491;46.898;7.660;2024-03-23T12:07:11;8.70;1.00
42841;DHT22;28491;46.898;7.660;2024-03-23T12:09:37;8.80;2.00
42841;DHT22;28491;46.898;7.660;2024-03-23T12:12:13;8.90;11.40
42841;DHT22;28491;46.898;7.660;2024-03-23T12:14:40;9.00;1.00
42841;DHT22;28491;46.898;7.660;2024-03-23T12:17:13;9.20;1.00
42841;DHT22;28491;46.898;7.660;2024-03-23T12:19:40;9.20;1.00
42841;DHT22;28491;46.898;7.660;2024-03-23T12:22:06;9.40;27.90
42841;DHT22;28491;46.898;7.660;2024-03-23T12:24:32;9.50;19.70
42841;DHT22;28491;46.898;7.660;2024-03-23T12:27:04;9.50;1.00
42841;DHT22;28491;46.898;7.660;2024-03-23T12:29:34;9.50;8.50
42841;DHT22;28491;46.898;7.660;2024-03-23T12:32:00;9.70;1.00
42841;DHT22;28491;46.898;7.660;2024-03-23T12:34:26;9.70;1.00
42841;DHT22;28491;46.898;7.660;2024-03-23T12:36:52;9.60;1.00
42841;DHT22;28491;46.898;7.660;2024-03-23T12:39:17;9.50;1.00
42841;DHT22;28491;46.898;7.660;2024-03-23T12:41:44;9.40;1.00
42841;DHT22;28491;46.898;7.660;2024-03-23T12:44:09;9.30;1.00
42841;DHT22;28491;46.898;7.660;2024-03-23T12:46:40;9.10;1.00
42841;DHT22;28491;46.898;7.660;2024-03-23T12:49:06;9.10;1.00
42841;DHT22;28491;46.898;7.660;2024-03-23T12:51:32;9.10;1.00
42841;DHT22;28491;46.898;7.660;2024-03-23T12:53:58;9.10;1.00
42841;DHT22;28491;46.898;7.660;2024-03-23T12:56:24;9.10;1.00
42841;DHT22;28491;46.898;7.660;2024-03-23T12:58:49;9.30;1.00
42841;DHT22;28491;46.898;7.660;2024-03-23T13:01:17;9.10;1.00
42841;DHT22;28491;46.898;7.660;2024-03-23T13:03:43;9.00;1.00
42841;DHT22;28491;46.898;7.660;2024-03-23T13:06:10;9.00;1.00
42841;DHT22;28491;46.898;7.660;2024-03-23T13:08:35;9.10;1.00
42841;DHT22;28491;46.898;7.660;2024-03-23T13:11:01;9.30;1.00
42841;DHT22;28491;46.898;7.660;2024-03-23T13:13:27;9.40;1.00
42841;DHT22;28491;46.898;7.660;2024-03-23T13:15:52;9.50;1.00
42841;DHT22;28491;46.898;7.660;2024-03-23T13:18:18;9.50;1.00
42841;DHT22;28491;46.898;7.660;2024-03-23T13:20:44;9.40;1.00
42841;DHT22;28491;46.898;7.660;2024-03-23T13:23:09;9.40;1.00
42841;DHT22;28491;46.898;7.660;2024-03-23T13:25:35;9.20;1.00
42841;DHT22;28491;46.898;7.660;2024-03-23T13:28:01;9.20;1.00
42841;DHT22;28491;46.898;7.660;2024-03-23T13:30:27;9.20;1.00
42841;DHT22;28491;46.898;7.660;2024-03-23T13:32:53;9.10;1.00
42841;DHT22;28491;46.898;7.660;2024-03-23T13:35:18;9.10;1.00
42841;DHT22;28491;46.898;7.660;2024-03-23T13:37:44;9.10;1.00
42841;DHT22;28491;46.898;7.660;2024-03-23T13:40:10;9.00;1.00
42841;DHT22;28491;46.898;7.660;2024-03-23T13:42:36;9.10;1.00
42841;DHT22;28491;46.898;7.660;2024-03-23T13:45:02;9.00;1.00
42841;DHT22;28491;46.898;7.660;2024-03-23T13:47:28;9.00;1.00
42841;DHT22;28491;46.898;7.660;2024-03-23T13:49:53;8.90;1.00
42841;DHT22;28491;46.898;7.660;2024-03-23T13:52:19;9.00;1.00
42841;DHT22;28491;46.898;7.660;2024-03-23T13:54:48;9.00;1.00
42841;DHT22;28491;46.898;7.660;2024-03-23T13:57:13;9.00;1.00
42841;DHT22;28491;46.898;7.660;2024-03-23T13:59:39;9.10;1.00
42841;DHT22;28491;46.898;7.660;2024-03-23T14:02:05;9.10;1.00
42841;DHT22;28491;46.898;7.660;2024-03-23T14:04:30;9.00;1.00
42841;DHT22;28491;46.898;7.660;2024-03-23T14:06:56;9.10;1.00
42841;DHT22;28491;46.898;7.660;2024-03-23T14:09:21;9.10;1.00
42841;DHT22;28491;46.898;7.660;2024-03-23T14:11:51;9.20;1.00
42841;DHT22;28491;46.898;7.660;2024-03-23T14:14:16;9.20;1.00
42841;DHT22;28491;46.898;7.660;2024-03-23T14:16:43;9.20;1.00
42841;DHT22;28491;46.898;7.660;2024-03-23T14:19:08;9.20;1.00
42841;DHT22;28491;46.898;7.660;2024-03-23T14:21:34;9.20;1.00
42841;DHT22;28491;46.898;7.660;2024-03-23T14:24:00;9.10;1.00
42841;DHT22;28491;46.898;7.660;2024-03-23T14:26:27;9.20;1.00
42841;DHT22;28491;46.898;7.660;2024-03-23T14:28:52;9.20;1.00
42841;DHT22;28491;46.898;7.660;2024-03-23T14:31:18;9.30;1.00
42841;DHT22;28491;46.898;7.660;2024-03-23T14:33:44;9.40;1.00
42841;DHT22;28491;46.898;7.660;2024-03-23T14:36:13;9.40;1.00
42841;DHT22;28491;46.898;7.660;2024-03-23T14:38:39;9.50;1.00
42841;DHT22;28491;46.898;7.660;2024-03-23T14:41:05;9.50;1.00
42841;DHT22;28491;46.898;7.660;2024-03-23T14:43:31;9.40;1.00
42841;DHT22;28491;46.898;7.660;2024-03-23T14:46:10;9.30;1.00
42841;DHT22;28491;46.898;7.660;2024-03-23T14:48:37;9.30;1.00
42841;DHT22;28491;46.898;7.660;2024-03-23T14:51:03;9.30;1.00
42841;DHT22;28491;46.898;7.660;2024-03-23T14:53:37;9.30;1.00
42841;DHT22;28491;46.898;7.660;2024-03-23T14:56:06;9.20;1.00
42841;DHT22;28491;46.898;7.660;2024-03-23T14:58:32;9.20;1.00
42841;DHT22;28491;46.898;7.660;2024-03-23T15:01:08;9.10;1.00
42841;DHT22;28491;46.898;7.660;2024-03-23T15:03:37;9.30;1.00
42841;DHT22;28491;46.898;7.660;2024-03-23T15:06:04;9.40;1.00
42841;DHT22;28491;46.898;7.660;2024-03-23T15:08:30;9.50;1.00
42841;DHT22;28491;46.898;7.660;2024-03-23T15:10:59;9.50;1.00
42841;DHT22;28491;46.898;7.660;2024-03-23T15:13:25;9.50;1.00
42841;DHT22;28491;46.898;7.660;2024-03-23T15:15:50;9.40;1.00
42841;DHT22;28491;46.898;7.660;2024-03-23T15:18:17;9.40;1.00
42841;DHT22;28491;46.898;7.660;2024-03-23T15:20:55;9.40;1.00
42841;DHT22;28491;46.898;7.660;2024-03-23T15:23:21;9.40;1.00
42841;DHT22;28491;46.898;7.660;2024-03-23T15:25:57;9.40;1.00
42841;DHT22;28491;46.898;7.660;2024-03-23T15:28:26;9.40;1.00
42841;DHT22;28491;46.898;7.660;2024-03-23T15:30:58;9.40;1.00
42841;DHT22;28491;46.898;7.660;2024-03-23T15:33:24;9.40;1.00
42841;DHT22;28491;46.898;7.660;2024-03-23T15:35:49;9.30;1.00
42841;DHT22;28491;46.898;7.660;2024-03-23T15:38:15;9.30;1.00
42841;DHT22;28491;46.898;7.660;2024-03-23T15:40:40;9.10;1.00
42841;DHT22;28491;46.898;7.660;2024-03-23T15:43:06;9.00;1.00
42841;DHT22;28491;46.898;7.660;2024-03-23T15:45:32;8.80;1.00
42841;DHT22;28491;46.898;7.660;2024-03-23T15:47:58;8.80;1.00
42841;DHT22;28491;46.898;7.660;2024-03-23T15:50:23;8.80;1.00
42841;DHT22;28491;46.898;7.660;2024-03-23T15:52:48;8.90;1.00
42841;DHT22;28491;46.898;7.660;2024-03-23T15:55:15;9.00;1.00
42841;DHT22;28491;46.898;7.660;2024-03-23T15:57:40;9.10;1.00
42841;DHT22;28491;46.898;7.660;2024-03-23T16:00:06;9.20;1.00
42841;DHT22;28491;46.898;7.660;2024-03-23T16:02:32;9.30;1.00
42841;DHT22;28491;46.898;7.660;2024-03-23T16:04:57;9.30;1.00
42841;DHT22;28491;46.898;7.660;2024-03-23T16:07:23;9.30;1.00
42841;DHT22;28491;46.898;7.660;2024-03-23T16:09:49;9.30;1.00
42841;DHT22;28491;46.898;7.660;2024-03-23T16:12:14;9.30;1.00
42841;DHT22;28491;46.898;7.660;2024-03-23T16:14:40;9.20;1.00
42841;DHT22;28491;46.898;7.660;2024-03-23T16:17:05;9.20;1.00
42841;DHT22;28491;46.898;7.660;2024-03-23T16:19:32;9.10;1.00
42841;DHT22;28491;46.898;7.660;2024-03-23T16:21:58;9.10;1.00
42841;DHT22;28491;46.898;7.660;2024-03-23T16:24:23;9.10;1.00
42841;DHT22;28491;46.898;7.660;2024-03-23T16:26:49;9.10;1.00
42841;DHT22;28491;46.898;7.660;2024-03-23T16:29:14;9.10;1.00
42841;DHT22;28491;46.898;7.660;2024-03-23T16:31:40;9.10;1.00
42841;DHT22;28491;46.898;7.660;2024-03-23T16:34:05;9.00;1.00
42841;DHT22;28491;46.898;7.660;2024-03-23T16:36:31;8.90;1.00
42841;DHT22;28491;46.898;7.660;2024-03-23T16:38:56;9.00;1.00
42841;DHT22;28491;46.898;7.660;2024-03-23T16:41:22;8.90;1.00
42841;DHT22;28491;46.898;7.660;2024-03-23T16:43:48;8.90;1.00
42841;DHT22;28491;46.898;7.660;2024-03-23T16:46:14;8.70;1.00
42841;DHT22;28491;46.898;7.660;2024-03-23T16:48:42;8.70;1.00
42841;DHT22;28491;46.898;7.660;2024-03-23T16:51:09;8.60;1.00
42841;DHT22;28491;46.898;7.660;2024-03-23T16:53:35;8.50;1.00